Time;durP1;ratioP1;P1;durP2;ratioP2;P2;SDS_P1;SDS_P2;PMS_P1;PMS_P2;Temp;Humidity;BMP_temperature;BMP_pressure;BME280_temperature;BME280_humidity;BME280_pressure;Samples;Min_cycle;Max_cycle;Signal;HPM_P1;HPM_P2
2023/06/04 00:02:19;;;;;;;3.78;1.98;;;;;;;15.22;100.00;98746.03;5000708;28;20018;-55
2023/06/04 00:04:44;;;;;;;3.67;2.00;;;;;;;15.17;100.00;98740.47;4995437;28;20362;-55
2023/06/04 00:07:09;;;;;;;6.15;2.00;;;;;;;15.03;100.00;98733.53;5004732;28;20033;-56
2023/06/04 00:09:35;;;;;;;6.05;1.98;;;;;;;14.91;100.00;98733.53;4985761;28;20065;-55
2023/06/04 00:12:00;;;;;;;4.40;1.90;;;;;;;14.85;100.00;98737.16;5015479;28;20025;-55
2023/06/04 00:14:26;;;;;;;4.70;1.90;;;;;;;14.77;100.00;98737.50;4995711;28;20191;-55
2023/06/04 00:16:51;;;;;;;3.38;1.92;;;;;;;14.72;100.00;98732.75;5010522;28;20025;-48
2023/06/04 00:19:17;;;;;;;3.05;1.92;;;;;;;14.96;100.00;98735.53;5012379;28;20056;-49
2023/06/04 00:21:42;;;;;;;3.08;1.85;;;;;;;14.79;100.00;98733.47;4995446;28;20032;-48
2023/06/04 00:24:08;;;;;;;2.92;1.90;;;;;;;14.75;100.00;98736.91;4994497;28;20029;-48
2023/06/04 00:26:33;;;;;;;2.75;1.67;;;;;;;14.60;100.00;98735.44;5012939;28;20342;-48
2023/06/04 00:29:00;;;;;;;5.43;1.85;;;;;;;14.58;100.00;98745.72;5000610;28;20090;-48
2023/06/04 00:31:26;;;;;;;6.88;2.10;;;;;;;14.60;100.00;98732.72;5013402;28;20116;-55
2023/06/04 00:33:51;;;;;;;5.47;1.80;;;;;;;14.58;100.00;98748.44;5014120;28;20167;-55
2023/06/04 00:36:17;;;;;;;5.88;2.05;;;;;;;14.53;100.00;98737.41;4993464;28;20025;-55
2023/06/04 00:38:43;;;;;;;4.53;1.85;;;;;;;14.41;100.00;98744.69;5014296;28;20136;-55
2023/06/04 00:41:08;;;;;;;4.57;2.08;;;;;;;14.36;100.00;98744.53;5011951;28;20037;-55
2023/06/04 00:43:35;;;;;;;4.40;1.90;;;;;;;14.21;100.00;98753.91;5008260;28;20025;-55
2023/06/04 00:46:05;;;;;;;6.32;1.77;;;;;;;14.14;100.00;98752.34;5011640;28;20033;-55
2023/06/04 00:48:30;;;;;;;8.15;2.22;;;;;;;14.20;100.00;98755.00;5021992;28;20088;-55
2023/06/04 00:50:57;;;;;;;3.63;1.73;;;;;;;14.14;100.00;98755.88;4992982;28;20545;-55
2023/06/04 00:53:24;;;;;;;4.18;1.90;;;;;;;14.08;100.00;98756.81;4995880;28;20030;-55
2023/06/04 00:55:50;;;;;;;3.70;2.00;;;;;;;13.99;100.00;98756.28;5020652;28;20064;-55
2023/06/04 00:58:16;;;;;;;4.82;1.92;;;;;;;13.89;100.00;98763.31;5015251;28;20025;-48
2023/06/04 01:00:44;;;;;;;4.10;1.90;;;;;;;13.77;100.00;98766.75;5015668;28;20022;-55
2023/06/04 01:03:14;;;;;;;6.07;2.15;;;;;;;13.73;100.00;98759.28;5025141;28;20370;-55
2023/06/04 01:05:43;;;;;;;3.55;2.03;;;;;;;13.58;100.00;98770.50;5009213;28;20528;-56
2023/06/04 01:08:10;;;;;;;4.75;2.05;;;;;;;13.45;100.00;98765.19;4996694;28;20041;-55
2023/06/04 01:10:36;;;;;;;4.85;2.13;;;;;;;13.49;100.00;98764.53;5000092;28;20037;-55
2023/06/04 01:13:01;;;;;;;4.55;2.00;;;;;;;13.33;100.00;98765.09;4995876;28;20385;-55
2023/06/04 01:15:27;;;;;;;4.93;2.03;;;;;;;13.28;100.00;98765.78;5004387;28;20033;-55
2023/06/04 01:18:02;;;;;;;3.47;2.17;;;;;;;13.21;100.00;98769.56;4996409;28;20025;-55
2023/06/04 01:20:37;;;;;;;4.85;2.30;;;;;;;13.08;100.00;98776.75;4997534;28;20401;-55
2023/06/04 01:23:42;;;;;;;5.32;2.20;;;;;;;13.01;100.00;98777.84;5002055;28;20541;-55
2023/06/04 01:26:10;;;;;;;6.75;1.90;;;;;;;12.92;100.00;98777.28;5016082;28;20029;-55
2023/06/04 01:28:36;;;;;;;4.35;1.92;;;;;;;12.90;100.00;98771.25;5016392;28;20115;-55
2023/06/04 01:31:04;;;;;;;4.68;2.15;;;;;;;12.89;100.00;98775.84;5012800;28;20473;-55
2023/06/04 01:33:29;;;;;;;3.45;1.90;;;;;;;12.94;100.00;98778.72;4995685;28;20034;-55
2023/06/04 01:35:55;;;;;;;3.80;2.00;;;;;;;12.93;100.00;98785.19;4994089;28;20018;-55
2023/06/04 01:38:21;;;;;;;5.20;1.90;;;;;;;12.91;100.00;98775.59;5005495;28;20484;-55
2023/06/04 01:40:46;;;;;;;5.65;2.10;;;;;;;12.94;100.00;98776.03;5000056;28;20033;-55
2023/06/04 01:43:12;;;;;;;5.18;2.20;;;;;;;12.78;100.00;98740.41;5002074;28;20033;-48
2023/06/04 01:45:38;;;;;;;4.38;1.90;;;;;;;12.94;100.00;98781.44;5003997;28;20153;-48
2023/06/04 01:48:05;;;;;;;6.82;2.10;;;;;;;12.87;100.00;98783.38;5018696;28;20128;-55
2023/06/04 01:50:33;;;;;;;7.25;1.83;;;;;;;12.82;100.00;98775.03;4995495;28;20025;-55
2023/06/04 01:52:59;;;;;;;5.43;1.80;;;;;;;12.83;100.00;98779.41;4997754;28;20022;-55
2023/06/04 01:55:25;;;;;;;3.67;1.80;;;;;;;12.76;100.00;98773.22;4996164;28;20038;-55
2023/06/04 01:57:51;;;;;;;3.08;2.05;;;;;;;12.71;100.00;98781.19;4997555;28;20092;-55
2023/06/04 02:00:17;;;;;;;3.13;1.95;;;;;;;12.61;100.00;98781.63;5011071;28;20481;-55
2023/06/04 02:02:45;;;;;;;6.38;2.08;;;;;;;12.56;100.00;98786.06;5001436;28;20049;-55
2023/06/04 02:05:11;;;;;;;6.22;2.08;;;;;;;12.57;100.00;98780.41;5026635;28;20026;-55
2023/06/04 02:07:38;;;;;;;3.10;1.75;;;;;;;12.52;100.00;98782.94;5023586;28;20022;-55
2023/06/04 02:10:08;;;;;;;5.90;2.05;;;;;;;12.51;100.00;98778.56;5007391;28;20136;-55
2023/06/04 02:12:36;;;;;;;3.78;2.05;;;;;;;12.36;100.00;98781.53;4997924;28;20095;-55
2023/06/04 02:15:02;;;;;;;3.20;1.90;;;;;;;12.24;100.00;98780.56;5019897;28;20022;-55
2023/06/04 02:17:32;;;;;;;3.50;1.88;;;;;;;12.15;100.00;98787.25;5011067;28;20076;-55
2023/06/04 02:19:58;;;;;;;9.93;2.13;;;;;;;12.13;100.00;98773.94;4975610;28;20592;-55
2023/06/04 02:22:24;;;;;;;4.38;1.80;;;;;;;12.06;100.00;98778.53;5000466;28;20505;-55
2023/06/04 02:24:50;;;;;;;3.92;2.40;;;;;;;11.99;100.00;98783.97;5013464;28;20065;-55
2023/06/04 02:27:15;;;;;;;3.20;2.00;;;;;;;11.99;100.00;98778.53;4995425;28;20056;-55
2023/06/04 02:29:41;;;;;;;7.05;2.13;;;;;;;11.98;100.00;98786.91;4995377;28;20065;-55
2023/06/04 02:32:08;;;;;;;5.05;1.80;;;;;;;11.90;100.00;98787.16;5014886;28;20054;-55
2023/06/04 02:34:36;;;;;;;4.40;1.65;;;;;;;11.91;100.00;98776.06;4996606;28;20038;-55
2023/06/04 02:37:02;;;;;;;4.65;1.58;;;;;;;11.81;100.00;98773.75;5011483;28;20025;-55
2023/06/04 02:39:28;;;;;;;2.92;1.85;;;;;;;11.78;100.00;98787.75;5001041;28;20015;-55
2023/06/04 02:41:53;;;;;;;3.50;1.63;;;;;;;11.78;100.00;98782.31;5012242;28;20037;-48
2023/06/04 02:44:19;;;;;;;2.67;1.45;;;;;;;11.78;100.00;98785.03;5009079;28;20033;-48
2023/06/04 02:46:45;;;;;;;3.85;1.80;;;;;;;11.78;100.00;98779.59;4993416;28;20130;-55
2023/06/04 02:49:14;;;;;;;4.80;1.92;;;;;;;11.68;100.00;98784.63;5003465;28;20469;-48
2023/06/04 02:51:43;;;;;;;3.72;1.90;;;;;;;11.58;100.00;98789.63;4997790;28;20475;-48
2023/06/04 02:54:09;;;;;;;7.47;2.05;;;;;;;11.58;100.00;98782.38;5001277;28;20113;-48
2023/06/04 02:56:37;;;;;;;5.05;1.50;;;;;;;11.54;100.00;98786.53;4994319;28;20116;-48
2023/06/04 02:59:03;;;;;;;1.98;1.45;;;;;;;11.53;100.00;98779.47;5017030;28;20025;-48
2023/06/04 03:01:28;;;;;;;6.00;1.90;;;;;;;11.51;100.00;98780.72;5011379;28;20030;-48
2023/06/04 03:03:54;;;;;;;2.08;1.60;;;;;;;11.51;100.00;98786.13;5012381;28;20388;-48
2023/06/04 03:06:21;;;;;;;2.72;1.70;;;;;;;11.56;100.00;98784.44;5000665;28;20064;-48
2023/06/04 03:08:48;;;;;;;5.28;1.73;;;;;;;11.56;100.00;98781.75;5013891;28;20043;-48
2023/06/04 03:11:14;;;;;;;1.98;1.48;;;;;;;11.50;100.00;98790.72;4980910;28;20030;-48
2023/06/04 03:13:40;;;;;;;4.68;1.70;;;;;;;11.43;100.00;98784.47;4998897;28;20032;-48
2023/06/04 03:16:14;;;;;;;3.97;1.60;;;;;;;11.41;100.00;98789.25;5010261;28;20059;-48
2023/06/04 03:18:41;;;;;;;5.68;1.70;;;;;;;11.30;100.00;98798.00;4993728;28;20022;-49
2023/06/04 03:21:08;;;;;;;3.72;1.60;;;;;;;11.24;100.00;98799.69;4994280;28;20021;-55
2023/06/04 03:23:34;;;;;;;3.70;2.20;;;;;;;11.23;100.00;98805.28;4995405;28;20477;-48
2023/06/04 03:26:04;;;;;;;4.50;2.47;;;;;;;11.22;100.00;98806.34;4999165;28;20033;-48
2023/06/04 03:28:31;;;;;;;6.05;2.20;;;;;;;11.21;100.00;98801.94;5014131;28;20381;-48
2023/06/04 03:30:56;;;;;;;3.28;1.80;;;;;;;11.27;100.00;98811.97;5011033;28;20092;-48
2023/06/04 03:33:22;;;;;;;2.65;1.70;;;;;;;11.32;100.00;98809.47;4955655;28;1078297;-49
2023/06/04 03:35:48;;;;;;;4.10;1.77;;;;;;;11.39;100.00;98805.69;5012376;28;20481;-48
2023/06/04 03:38:14;;;;;;;3.05;1.75;;;;;;;11.41;100.00;98813.63;5011392;28;20549;-48
2023/06/04 03:40:40;;;;;;;2.88;1.67;;;;;;;11.32;100.00;98813.00;4995245;28;20026;-48
2023/06/04 03:43:06;;;;;;;7.10;1.77;;;;;;;11.26;100.00;98816.53;4998817;28;20623;-48
2023/06/04 03:45:31;;;;;;;2.58;1.70;;;;;;;11.26;100.00;98805.69;4996789;28;20058;-48
2023/06/04 03:47:56;;;;;;;3.75;1.70;;;;;;;11.29;100.00;98810.72;5021129;28;20053;-48
2023/06/04 03:50:22;;;;;;;6.50;1.92;;;;;;;11.38;100.00;98809.47;5001874;28;20053;-48
2023/06/04 03:52:50;;;;;;;3.28;1.50;;;;;;;11.48;100.00;98811.75;5005621;28;20034;-48
2023/06/04 03:55:16;;;;;;;3.55;1.70;;;;;;;11.55;100.00;98823.44;5001345;28;20534;-48
2023/06/04 03:57:41;;;;;;;3.10;1.55;;;;;;;11.63;100.00;98825.06;4991796;28;20033;-48
2023/06/04 04:00:11;;;;;;;2.85;1.77;;;;;;;11.59;100.00;98821.97;4991663;28;20113;-49
2023/06/04 04:02:37;;;;;;;3.08;1.50;;;;;;;11.63;100.00;98823.22;4997298;28;20053;-48
2023/06/04 04:05:03;;;;;;;5.00;1.67;;;;;;;11.61;100.00;98830.72;5007331;28;20117;-48
2023/06/04 04:07:28;;;;;;;2.42;1.30;;;;;;;11.62;100.00;98826.13;4978173;28;20034;-48
2023/06/04 04:09:54;;;;;;;4.40;1.50;;;;;;;11.62;100.00;98824.25;5022302;28;20029;-48
2023/06/04 04:12:19;;;;;;;3.05;1.42;;;;;;;11.77;100.00;98828.63;4989302;28;20033;-48
2023/06/04 04:14:46;;;;;;;3.58;1.58;;;;;;;11.84;100.00;98830.28;5005008;28;20065;-48
2023/06/04 04:17:12;;;;;;;7.22;1.58;;;;;;;11.95;100.00;98819.88;5000372;28;20389;-48
2023/06/04 04:19:38;;;;;;;3.17;1.40;;;;;;;11.98;100.00;98830.28;4994199;28;20462;-49
2023/06/04 04:22:03;;;;;;;3.67;1.60;;;;;;;11.92;100.00;98836.53;4992221;28;20039;-48
2023/06/04 04:24:29;;;;;;;3.67;1.40;;;;;;;11.92;100.00;98831.97;4992926;28;20205;-48
2023/06/04 04:26:54;;;;;;;2.67;1.50;;;;;;;11.96;100.00;98840.50;5013245;28;20023;-55
2023/06/04 04:29:22;;;;;;;4.30;1.45;;;;;;;11.93;100.00;98839.06;5011326;28;20038;-56
2023/06/04 04:31:50;;;;;;;8.65;2.17;;;;;;;12.02;100.00;98847.78;4995749;28;20040;-55
2023/06/04 04:34:16;;;;;;;2.95;1.85;;;;;;;12.17;100.00;98845.66;4992253;28;20033;-48
2023/06/04 04:36:43;;;;;;;7.20;1.48;;;;;;;12.24;100.00;98841.06;4997517;28;20390;-48
2023/06/04 04:39:09;;;;;;;3.47;1.73;;;;;;;12.40;100.00;98844.38;5026149;28;20018;-48
2023/06/04 04:41:35;;;;;;;3.63;1.65;;;;;;;12.52;100.00;98842.63;5003960;28;21524;-48
2023/06/04 04:44:04;;;;;;;3.30;1.63;;;;;;;12.63;100.00;98843.88;4992754;28;20080;-48
2023/06/04 04:46:30;;;;;;;5.60;1.50;;;;;;;12.65;100.00;98849.88;5011837;28;20473;-48
2023/06/04 04:48:56;;;;;;;3.13;1.52;;;;;;;12.73;100.00;98852.34;5005621;28;20034;-55
2023/06/04 04:51:21;;;;;;;5.68;1.55;;;;;;;12.86;100.00;98843.31;5006510;28;20026;-55
2023/06/04 04:53:47;;;;;;;2.38;1.30;;;;;;;12.96;100.00;98849.09;4985025;28;20029;-55
2023/06/04 04:56:13;;;;;;;3.55;1.50;;;;;;;13.05;100.00;98852.41;4983053;28;20026;-55
2023/06/04 04:58:38;;;;;;;5.53;1.52;;;;;;;13.09;100.00;98846.31;4987748;28;20109;-55
2023/06/04 05:01:04;;;;;;;6.40;1.92;;;;;;;13.15;100.00;98848.16;4999487;28;20080;-48
2023/06/04 05:03:29;;;;;;;8.85;1.70;;;;;;;13.26;100.00;98846.66;5018750;28;20033;-55
2023/06/04 05:05:55;;;;;;;5.85;1.67;;;;;;;13.41;100.00;98851.75;5009877;28;20410;-49
2023/06/04 05:08:20;;;;;;;4.22;1.60;;;;;;;13.49;100.00;98864.25;4993807;28;20022;-55
2023/06/04 05:10:45;;;;;;;5.15;1.40;;;;;;;13.64;100.00;98856.59;5012022;28;20037;-55
2023/06/04 05:13:11;;;;;;;2.10;1.10;;;;;;;13.93;100.00;98855.09;5012929;28;20034;-49
2023/06/04 05:15:36;;;;;;;3.53;1.60;;;;;;;14.25;100.00;98853.09;5007782;28;20022;-49
2023/06/04 05:18:03;;;;;;;4.75;1.33;;;;;;;14.58;100.00;98861.97;4997395;28;20022;-49
2023/06/04 05:20:29;;;;;;;4.68;1.30;;;;;;;14.67;100.00;98858.72;4995535;28;20049;-48
2023/06/04 05:22:55;;;;;;;2.13;1.13;;;;;;;14.83;100.00;98862.72;4991946;28;20373;-55
2023/06/04 05:25:21;;;;;;;1.90;1.10;;;;;;;14.90;100.00;98865.34;5002710;28;20116;-55
2023/06/04 05:27:49;;;;;;;2.67;1.40;;;;;;;14.87;100.00;98863.06;5008921;28;20098;-55
2023/06/04 05:30:14;;;;;;;4.90;1.77;;;;;;;14.94;100.00;98863.81;5000174;28;20030;-55
2023/06/04 05:32:40;;;;;;;7.72;1.58;;;;;;;15.15;100.00;98867.13;5021172;28;20048;-49
2023/06/04 05:35:07;;;;;;;4.55;1.33;;;;;;;15.40;100.00;98870.47;4998060;28;20053;-49
2023/06/04 05:37:34;;;;;;;7.00;1.50;;;;;;;15.83;100.00;98872.16;5010464;28;22558;-49
2023/06/04 05:40:00;;;;;;;2.45;1.10;;;;;;;15.94;100.00;98874.06;4997586;28;20045;-49
2023/06/04 05:42:25;;;;;;;5.60;1.38;;;;;;;16.43;100.00;98874.63;4997487;28;20021;-49
2023/06/04 05:44:52;;;;;;;4.80;1.30;;;;;;;16.81;100.00;98870.53;5009349;28;20477;-49
2023/06/04 05:47:18;;;;;;;1.65;1.00;;;;;;;17.05;100.00;98881.38;5019442;28;20052;-49
2023/06/04 05:49:44;;;;;;;4.10;1.40;;;;;;;17.45;100.00;98866.84;5004676;28;20076;-55
2023/06/04 05:52:09;;;;;;;2.25;1.23;;;;;;;17.53;100.00;98869.16;4994477;28;20454;-55
2023/06/04 05:54:39;;;;;;;2.20;1.13;;;;;;;17.42;100.00;98876.34;4993483;28;20068;-55
2023/06/04 05:57:05;;;;;;;;;;;;;;;17.97;100.00;98880.28;5014953;28;20050;-55
2023/06/04 05:59:30;;;;;;;2.75;1.10;;;;;;;18.37;100.00;98882.84;4996938;28;20004;-55
2023/06/04 06:01:56;;;;;;;3.50;1.23;;;;;;;18.88;98.41;98879.94;5015760;28;20100;-55
2023/06/04 06:04:22;;;;;;;4.88;1.48;;;;;;;18.85;90.88;98877.72;4998075;28;20037;-55
2023/06/04 06:06:48;;;;;;;5.47;1.50;;;;;;;18.51;91.23;98885.19;4997445;28;20044;-56
2023/06/04 06:09:14;;;;;;;7.25;1.70;;;;;;;19.05;92.34;98888.94;5015262;28;20025;-55
2023/06/04 06:11:40;;;;;;;2.35;1.15;;;;;;;19.32;88.46;98884.56;5004268;28;20428;-55
2023/06/04 06:14:06;;;;;;;5.28;1.13;;;;;;;19.78;89.21;98882.28;5013711;28;20022;-54
2023/06/04 06:16:32;;;;;;;5.57;1.38;;;;;;;20.22;85.95;98880.13;5000474;28;20379;-48
2023/06/04 06:18:58;;;;;;;5.10;1.30;;;;;;;20.23;83.35;98892.81;4993440;28;20076;-46
2023/06/04 06:21:24;;;;;;;2.15;1.30;;;;;;;19.98;83.08;98885.19;4995477;28;20385;-48
2023/06/04 06:23:49;;;;;;;2.65;1.25;;;;;;;20.09;81.02;98880.59;5001848;28;20033;-48
2023/06/04 06:26:15;;;;;;;2.35;1.27;;;;;;;20.42;79.95;98878.63;5004195;28;20374;-48
2023/06/04 06:28:41;;;;;;;2.78;1.20;;;;;;;20.82;80.28;98890.94;5014121;28;20069;-48
2023/06/04 06:31:07;;;;;;;3.17;1.20;;;;;;;21.01;78.06;98881.97;5011951;28;20030;-47
2023/06/04 06:33:32;;;;;;;3.42;1.20;;;;;;;21.28;77.36;98891.94;5009000;28;20079;-56
2023/06/04 06:36:00;;;;;;;3.92;1.10;;;;;;;21.37;75.01;98893.06;4992837;28;20045;-55
2023/06/04 06:38:26;;;;;;;3.47;1.05;;;;;;;21.68;71.86;98901.41;4993149;28;20041;-55
2023/06/04 06:40:52;;;;;;;2.15;1.02;;;;;;;22.02;69.43;98898.94;4988423;28;20518;-47
2023/06/04 06:43:18;;;;;;;2.50;1.05;;;;;;;22.58;68.07;98897.22;5014357;28;20121;-55
2023/06/04 06:45:43;;;;;;;1.55;1.00;;;;;;;23.57;66.34;98891.81;4994382;28;20037;-55
2023/06/04 06:48:09;;;;;;;2.83;1.30;;;;;;;25.19;59.71;98892.53;5004661;28;20097;-48
2023/06/04 06:50:35;;;;;;;3.78;1.30;;;;;;;27.66;53.45;98898.88;5008225;28;20022;-56
2023/06/04 06:53:02;;;;;;;5.80;1.17;;;;;;;29.19;46.50;98892.09;4997943;28;20021;-56
2023/06/04 06:55:27;;;;;;;3.45;1.08;;;;;;;30.65;43.54;98896.31;4991249;28;20705;-55
2023/06/04 06:57:52;;;;;;;4.93;1.40;;;;;;;32.29;39.50;98896.38;5019746;28;20484;-56
2023/06/04 07:00:18;;;;;;;4.97;0.98;;;;;;;30.69;38.68;98892.50;4997040;28;20038;-56
2023/06/04 07:02:43;;;;;;;2.47;1.30;;;;;;;32.38;38.59;98888.69;4983000;28;20033;-48
2023/06/04 07:05:09;;;;;;;1.33;0.90;;;;;;;34.41;36.71;98893.47;4993478;28;20030;-48
2023/06/04 07:07:35;;;;;;;4.88;1.38;;;;;;;34.04;34.70;98890.00;4991773;28;20030;-55
2023/06/04 07:10:00;;;;;;;1.92;0.98;;;;;;;34.38;34.85;98894.19;5001261;28;20026;-55
2023/06/04 07:12:26;;;;;;;2.13;1.10;;;;;;;34.78;34.30;98889.63;4992322;28;20485;-56
2023/06/04 07:14:51;;;;;;;2.60;1.08;;;;;;;35.74;33.70;98888.31;4993106;28;20059;-54
2023/06/04 07:17:17;;;;;;;3.80;1.17;;;;;;;35.60;32.67;98885.16;5002139;28;20036;-54
2023/06/04 07:19:42;;;;;;;2.33;1.05;;;;;;;34.29;33.34;98887.91;5000969;28;20084;-54
2023/06/04 07:22:07;;;;;;;4.35;1.10;;;;;;;33.44;33.84;98886.22;4996254;28;20458;-47
2023/06/04 07:24:33;;;;;;;3.08;1.45;;;;;;;34.62;33.95;98890.44;4994840;28;20026;-49
2023/06/04 07:26:58;;;;;;;2.53;1.20;;;;;;;35.68;32.78;98884.94;4996461;28;20036;-49
2023/06/04 07:29:24;;;;;;;2.97;1.27;;;;;;;36.18;31.68;98888.84;5012987;28;20036;-57
2023/06/04 07:31:49;;;;;;;1.80;1.10;;;;;;;37.25;30.58;98892.72;5012347;28;20018;-56
2023/06/04 07:34:15;;;;;;;5.88;0.90;;;;;;;35.52;31.63;98890.59;5011999;28;20112;-57
2023/06/04 07:36:40;;;;;;;3.08;1.20;;;;;;;35.80;31.47;98884.00;5013047;28;20037;-57
2023/06/04 07:39:07;;;;;;;1.73;1.20;;;;;;;37.75;30.11;98878.50;4999023;28;20034;-57
2023/06/04 07:41:32;;;;;;;4.70;1.00;;;;;;;37.93;30.94;98875.91;4994693;28;20030;-57
2023/06/04 07:43:57;;;;;;;4.65;1.40;;;;;;;38.35;29.67;98880.44;5008284;28;20207;-57
2023/06/04 07:46:23;;;;;;;2.58;1.20;;;;;;;38.49;29.45;98877.81;4994243;28;20037;-57
2023/06/04 07:48:48;;;;;;;2.70;1.30;;;;;;;37.95;28.50;98876.34;4992334;28;20100;-57
2023/06/04 07:51:14;;;;;;;2.75;1.40;;;;;;;37.12;29.65;98877.19;4992830;28;20030;-49
2023/06/04 07:53:39;;;;;;;2.60;1.20;;;;;;;37.71;29.99;98872.84;4995538;28;20094;-49
2023/06/04 07:56:06;;;;;;;2.15;1.10;;;;;;;37.93;30.14;98873.09;5008230;28;20042;-50
2023/06/04 07:58:31;;;;;;;4.80;1.30;;;;;;;39.06;29.05;98871.03;4991294;28;20026;-49
2023/06/04 08:00:57;;;;;;;3.88;1.05;;;;;;;39.99;28.26;98868.75;5004050;28;20029;-58
2023/06/04 08:03:23;;;;;;;1.33;1.00;;;;;;;41.01;27.94;98869.31;5009252;28;20458;-57
2023/06/04 08:05:48;;;;;;;3.53;1.27;;;;;;;39.09;27.75;98870.22;5009844;28;20045;-57
2023/06/04 08:08:14;;;;;;;2.38;1.13;;;;;;;40.76;27.04;98871.34;5004130;28;20053;-58
2023/06/04 08:10:40;;;;;;;1.95;1.00;;;;;;;39.05;27.45;98861.72;5002950;28;20029;-58
2023/06/04 08:13:06;;;;;;;2.55;1.33;;;;;;;39.15;27.26;98863.81;5011724;28;20021;-57
2023/06/04 08:15:31;;;;;;;2.95;1.30;;;;;;;40.02;26.93;98862.28;4995695;28;20024;-57
2023/06/04 08:17:57;;;;;;;1.85;1.38;;;;;;;39.51;27.32;98858.41;4997486;28;20032;-58
2023/06/04 08:20:23;;;;;;;2.00;1.10;;;;;;;40.04;27.96;98862.69;4993731;28;20026;-50
2023/06/04 08:22:49;;;;;;;2.67;1.10;;;;;;;39.41;27.26;98857.13;4994605;28;20113;-49
2023/06/04 08:25:15;;;;;;;2.30;1.23;;;;;;;40.91;26.43;98868.09;5015570;28;20100;-58
2023/06/04 08:27:41;;;;;;;3.35;1.30;;;;;;;39.58;27.74;98866.13;4994379;28;20029;-58
2023/06/04 08:30:08;;;;;;;3.65;1.13;;;;;;;40.62;27.20;98864.44;4994436;28;20042;-58
2023/06/04 08:32:33;;;;;;;1.80;1.08;;;;;;;40.71;26.05;98870.53;4991964;28;20026;-58
2023/06/04 08:34:59;;;;;;;6.60;1.13;;;;;;;40.46;27.29;98861.19;4992003;28;20478;-58
2023/06/04 08:37:24;;;;;;;3.03;0.90;;;;;;;41.35;26.56;98858.34;4993173;28;20061;-57
2023/06/04 08:39:50;;;;;;;2.30;1.10;;;;;;;41.89;26.22;98858.16;4996721;28;20377;-56
2023/06/04 08:42:29;;;;;;;1.90;0.93;;;;;;;41.34;27.11;98864.41;4994606;28;20091;-58
2023/06/04 08:44:56;;;;;;;1.88;1.10;;;;;;;42.53;26.11;98864.75;4995246;28;20025;-57
2023/06/04 08:47:25;;;;;;;1.77;1.20;;;;;;;42.99;25.18;98867.22;4993336;28;20440;-58
2023/06/04 08:49:51;;;;;;;2.88;0.98;;;;;;;43.12;25.14;98870.34;4987327;28;20366;-58
2023/06/04 08:52:21;;;;;;;1.80;0.98;;;;;;;42.98;25.11;98864.81;4992022;28;20052;-58
2023/06/04 08:54:49;;;;;;;2.30;1.10;;;;;;;42.71;25.32;98865.41;4989623;28;20080;-58
2023/06/04 08:57:16;;;;;;;2.83;1.52;;;;;;;41.50;23.83;98861.97;4981668;28;20027;-58
2023/06/04 08:59:42;;;;;;;1.83;1.00;;;;;;;40.24;23.53;98855.47;4995438;28;20026;-57
2023/06/04 09:02:08;;;;;;;1.48;1.00;;;;;;;40.72;22.16;98860.03;5010612;28;20366;-49
2023/06/04 09:04:34;;;;;;;2.50;1.40;;;;;;;38.20;23.32;98864.53;5009349;28;20044;-49
2023/06/04 09:07:02;;;;;;;2.00;1.08;;;;;;;39.12;22.87;98853.28;5007925;28;20072;-57
2023/06/04 09:09:29;;;;;;;2.97;1.27;;;;;;;37.63;24.04;98854.19;4997208;28;20061;-57
2023/06/04 09:11:56;;;;;;;3.60;1.10;;;;;;;38.72;23.47;98852.13;5022708;28;20030;-57
2023/06/04 09:14:22;;;;;;;4.47;1.42;;;;;;;39.82;22.78;98848.44;4999044;28;20112;-57
2023/06/04 09:16:54;;;;;;;7.32;1.20;;;;;;;39.03;22.67;98844.31;5011110;28;20157;-57
2023/06/04 09:19:20;;;;;;;1.90;1.00;;;;;;;39.64;23.04;98851.19;4993206;28;20025;-57
2023/06/04 09:21:58;;;;;;;3.90;1.05;;;;;;;39.47;23.18;98849.06;5018048;28;20323;-49
2023/06/04 09:24:38;;;;;;;3.38;1.00;;;;;;;40.92;22.74;98857.56;5008778;28;20777;-57
2023/06/04 09:27:10;;;;;;;2.17;1.10;;;;;;;39.35;23.26;98861.53;4985926;28;20033;-57
2023/06/04 09:29:36;;;;;;;1.75;1.40;;;;;;;38.83;23.13;98857.91;5005566;28;20021;-57
2023/06/04 09:32:01;;;;;;;4.72;1.73;;;;;;;39.59;23.12;98850.72;5019552;28;20304;-49
2023/06/04 09:34:30;;;;;;;1.63;1.10;;;;;;;40.16;22.51;98856.63;4990722;28;20026;-49
2023/06/04 09:36:56;;;;;;;2.15;1.27;;;;;;;39.94;23.25;98854.97;4987018;28;20120;-49
2023/06/04 09:39:23;;;;;;;3.22;1.42;;;;;;;39.70;22.59;98853.63;4998921;28;20100;-49
2023/06/04 09:42:02;;;;;;;2.70;1.38;;;;;;;39.78;23.20;98855.31;4992048;28;20029;-49
2023/06/04 09:44:29;;;;;;;1.20;0.90;;;;;;;38.67;23.33;98855.31;5003084;28;20382;-49
2023/06/04 09:46:58;;;;;;;3.85;1.40;;;;;;;37.70;24.55;98853.44;5014952;28;20083;-57
2023/06/04 09:49:24;;;;;;;2.03;1.10;;;;;;;38.09;23.31;98848.28;5001165;28;20136;-49
2023/06/04 09:51:50;;;;;;;3.45;1.40;;;;;;;38.49;23.79;98855.19;4997386;28;20025;-49
2023/06/04 09:54:16;;;;;;;2.20;1.40;;;;;;;39.15;23.93;98851.69;4992723;28;20018;-49
2023/06/04 09:56:41;;;;;;;1.98;1.30;;;;;;;40.34;23.73;98847.41;5005923;28;20052;-49
2023/06/04 09:59:09;;;;;;;2.92;1.40;;;;;;;40.71;22.69;98850.69;5018956;28;20054;-57
2023/06/04 10:01:40;;;;;;;2.53;1.03;;;;;;;40.23;22.85;98853.84;5012166;28;20516;-58
2023/06/04 10:04:08;;;;;;;2.45;1.40;;;;;;;40.81;22.29;98851.09;5010411;28;20061;-58
2023/06/04 10:06:35;;;;;;;2.50;1.17;;;;;;;41.22;22.61;98859.19;5010858;28;20048;-58
2023/06/04 10:09:06;;;;;;;2.03;1.10;;;;;;;40.63;21.82;98859.56;5014929;28;20112;-57
2023/06/04 10:11:35;;;;;;;1.90;1.30;;;;;;;39.95;22.62;98850.91;4986817;28;20021;-49
2023/06/04 10:14:07;;;;;;;5.20;1.40;;;;;;;40.52;22.89;98848.22;5009707;28;20034;-49
2023/06/04 10:16:33;;;;;;;2.25;1.38;;;;;;;41.47;22.21;98845.72;5004747;28;20323;-57
2023/06/04 10:19:00;;;;;;;3.85;1.45;;;;;;;41.29;21.77;98848.59;5020866;28;20022;-58
2023/06/04 10:21:26;;;;;;;2.35;1.30;;;;;;;41.54;21.74;98847.75;4996951;28;20057;-58
2023/06/04 10:23:52;;;;;;;5.57;1.33;;;;;;;40.55;22.11;98852.28;4994497;28;20084;-57
2023/06/04 10:26:18;;;;;;;1.63;1.10;;;;;;;41.01;22.97;98846.63;5008474;28;20029;-58
2023/06/04 10:28:44;;;;;;;2.08;1.08;;;;;;;41.23;22.00;98853.09;5002667;28;20037;-58
2023/06/04 10:31:10;;;;;;;4.05;1.38;;;;;;;41.24;22.11;98842.53;5012109;28;20017;-58
2023/06/04 10:33:36;;;;;;;3.10;1.40;;;;;;;40.70;21.86;98846.22;5031051;28;20487;-58
2023/06/04 10:36:17;;;;;;;1.85;1.15;;;;;;;40.52;22.48;98843.34;5021003;28;20033;-58
2023/06/04 10:38:53;;;;;;;2.85;1.30;;;;;;;41.34;22.35;98838.88;4999738;28;20045;-50
2023/06/04 10:41:23;;;;;;;2.45;1.30;;;;;;;43.03;21.31;98841.56;4995567;28;20026;-57
2023/06/04 10:43:50;;;;;;;2.40;1.58;;;;;;;42.03;21.61;98841.06;5013241;28;20030;-58
2023/06/04 10:46:18;;;;;;;1.48;1.30;;;;;;;42.02;21.03;98827.25;5008954;28;20045;-50
2023/06/04 10:48:46;;;;;;;2.65;1.38;;;;;;;40.29;22.09;98835.22;5006527;28;20030;-49
2023/06/04 10:51:12;;;;;;;2.70;1.40;;;;;;;41.15;21.85;98832.41;5016734;28;20053;-49
2023/06/04 10:53:37;;;;;;;2.88;1.33;;;;;;;39.60;22.53;98827.69;5011498;28;20061;-50
2023/06/04 10:56:03;;;;;;;1.92;1.33;;;;;;;40.30;22.81;98833.22;4991744;28;20029;-50
2023/06/04 10:58:35;;;;;;;2.78;1.40;;;;;;;40.37;22.86;98821.88;5028119;28;20052;-50
2023/06/04 11:01:00;;;;;;;1.42;1.30;;;;;;;39.86;22.01;98840.78;4997060;28;20018;-58
2023/06/04 11:03:36;;;;;;;2.70;1.52;;;;;;;39.91;23.33;98825.41;5019088;28;20029;-50
2023/06/04 11:06:01;;;;;;;5.30;1.50;;;;;;;40.80;22.41;98835.31;4997244;28;20056;-50
2023/06/04 11:08:29;;;;;;;3.67;1.35;;;;;;;39.60;22.83;98826.88;4992049;28;20441;-50
2023/06/04 11:10:55;;;;;;;2.90;1.33;;;;;;;40.02;23.48;98826.25;5011547;28;20014;-58
2023/06/04 11:13:28;;;;;;;2.53;1.45;;;;;;;40.90;22.41;98828.78;5004261;28;20028;-50
2023/06/04 11:15:53;;;;;;;4.95;1.40;;;;;;;42.18;21.72;98821.88;5017268;28;20036;-50
2023/06/04 11:18:20;;;;;;;3.75;1.30;;;;;;;41.26;22.39;98820.22;4994962;28;20034;-58
2023/06/04 11:20:48;;;;;;;2.03;1.15;;;;;;;43.06;22.05;98818.75;4986853;28;20195;-58
2023/06/04 11:23:14;;;;;;;2.33;1.52;;;;;;;43.77;21.68;98822.03;4992386;28;20033;-58
2023/06/04 11:25:40;;;;;;;4.10;1.75;;;;;;;43.37;21.52;98812.34;4994834;28;20025;-58
2023/06/04 11:28:06;;;;;;;5.45;1.60;;;;;;;42.31;21.85;98815.69;5004528;28;20053;-51